Time;durP1;ratioP1;P1;durP2;ratioP2;P2;SDS_P1;SDS_P2;PMS_P1;PMS_P2;Temp;Humidity;BMP_temperature;BMP_pressure;BME280_temperature;BME280_humidity;BME280_pressure;Samples;Min_cycle;Max_cycle;Signal;HPM_P1;HPM_P2
2022/09/09 00:02:18;;;;;;;3.17;0.82;;;15.40;69.00;;;;;;5001221;28;20017;-78
2022/09/09 00:05:01;;;;;;;2.28;0.65;;;15.40;68.80;;;;;;4979451;28;20503;-79
2022/09/09 00:08:03;;;;;;;3.47;0.73;;;15.40;68.80;;;;;;4977885;28;20030;-80
2022/09/09 00:10:36;;;;;;;4.50;0.90;;;15.30;68.90;;;;;;4973348;28;20031;-81
2022/09/09 00:13:23;;;;;;;1.95;0.70;;;15.30;68.90;;;;;;4977532;28;20023;-81
2022/09/09 00:16:04;;;;;;;2.33;0.88;;;15.30;69.00;;;;;;4977514;28;20034;-83
2022/09/09 00:19:00;;;;;;;8.75;1.55;;;15.30;69.10;;;;;;4977735;28;20065;-85
2022/09/09 00:21:57;;;;;;;1.02;0.60;;;15.30;69.20;;;;;;4977992;28;20031;-82
2022/09/09 00:24:43;;;;;;;3.13;0.85;;;15.30;69.30;;;;;;4977786;28;20118;-80
2022/09/09 00:27:23;;;;;;;3.63;0.65;;;15.20;69.30;;;;;;4977515;28;20034;-80
2022/09/09 00:30:14;;;;;;;3.42;0.93;;;15.20;69.40;;;;;;4977455;28;20023;-84
2022/09/09 00:32:41;;;;;;;4.10;0.60;;;15.10;69.60;;;;;;4976951;28;20093;-81
2022/09/09 00:35:18;;;;;;;3.67;0.70;;;15.10;69.70;;;;;;4977788;28;20038;-81
2022/09/09 00:37:47;;;;;;;2.95;0.70;;;15.20;69.70;;;;;;4978208;28;20023;-80
2022/09/09 00:40:37;;;;;;;1.60;0.77;;;15.20;69.50;;;;;;4977668;28;20027;-86
2022/09/09 00:43:30;;;;;;;4.15;0.63;;;15.20;69.40;;;;;;4977659;28;20023;-86
2022/09/09 00:46:01;;;;;;;3.55;0.65;;;15.20;69.20;;;;;;4975619;28;20046;-86
2022/09/09 00:48:54;;;;;;;3.13;0.82;;;15.20;69.40;;;;;;4978387;28;20165;-84
2022/09/09 00:51:28;;;;;;;5.15;0.93;;;15.20;69.60;;;;;;4977888;28;20023;-84
2022/09/09 00:54:11;;;;;;;4.35;0.85;;;15.20;69.50;;;;;;4977760;28;20106;-85
2022/09/09 00:57:02;;;;;;;3.20;0.90;;;15.20;69.50;;;;;;4978178;28;20026;-85
2022/09/09 00:59:47;;;;;;;3.83;0.98;;;15.20;69.50;;;;;;4967027;28;20037;-84
2022/09/09 01:02:47;;;;;;;4.63;0.70;;;15.20;69.60;;;;;;4978795;28;20057;-87
2022/09/09 01:05:23;;;;;;;4.25;1.00;;;15.10;69.60;;;;;;4983527;28;20023;-84
2022/09/09 01:07:49;;;;;;;4.10;0.88;;;15.10;69.60;;;;;;4986524;28;20062;-88
2022/09/09 01:10:27;;;;;;;4.05;0.85;;;15.00;69.90;;;;;;4985706;28;20081;-85
2022/09/09 01:12:55;;;;;;;3.13;0.95;;;15.00;70.20;;;;;;4984634;28;20023;-88
2022/09/09 01:15:26;;;;;;;5.53;1.00;;;15.00;70.20;;;;;;4986334;28;20037;-87
2022/09/09 01:18:16;;;;;;;4.57;0.90;;;14.90;70.40;;;;;;4990918;28;20021;-85
2022/09/09 01:21:09;;;;;;;4.95;0.63;;;14.90;70.70;;;;;;4999690;28;20015;-84
2022/09/09 01:23:38;;;;;;;3.33;0.70;;;14.90;70.90;;;;;;4999214;28;20047;-86
2022/09/09 01:26:30;;;;;;;2.95;0.60;;;14.80;70.80;;;;;;4998901;28;20027;-83
2022/09/09 01:28:56;;;;;;;3.10;0.85;;;14.90;70.80;;;;;;5000597;28;20042;-83
2022/09/09 01:31:28;;;;;;;3.25;0.73;;;14.90;70.70;;;;;;5000440;28;20035;-84
2022/09/09 01:33:53;;;;;;;3.70;0.90;;;14.90;70.90;;;;;;5000794;28;20026;-84
2022/09/09 01:36:36;;;;;;;4.10;0.95;;;14.90;70.90;;;;;;5000689;28;20070;-85
2022/09/09 01:39:02;;;;;;;2.97;0.90;;;14.90;70.90;;;;;;5000622;28;20014;-84
2022/09/09 01:41:28;;;;;;;3.35;1.00;;;14.90;70.90;;;;;;5000454;28;20021;-83
2022/09/09 01:43:55;;;;;;;3.33;0.90;;;14.90;71.00;;;;;;5016159;28;20078;-83
2022/09/09 01:46:22;;;;;;;6.13;0.70;;;14.90;71.00;;;;;;5000237;28;20029;-84
2022/09/09 01:48:51;;;;;;;4.00;0.70;;;14.90;70.80;;;;;;5015955;28;20022;-82
2022/09/09 01:51:16;;;;;;;5.07;0.75;;;15.00;70.70;;;;;;4993945;28;20115;-84
2022/09/09 01:53:44;;;;;;;2.83;0.60;;;15.00;70.80;;;;;;4987905;28;20034;-86
2022/09/09 01:56:37;;;;;;;7.75;1.00;;;15.00;70.80;;;;;;4993826;28;20027;-85
2022/09/09 01:59:37;;;;;;;3.80;1.00;;;15.00;70.80;;;;;;4990363;28;20057;-84
2022/09/09 02:02:09;;;;;;;4.70;1.05;;;15.00;70.80;;;;;;4988636;28;20470;-86
2022/09/09 02:04:49;;;;;;;0.98;0.50;;;15.00;70.80;;;;;;4989018;28;20031;-86
2022/09/09 02:07:33;;;;;;;4.07;0.82;;;15.10;71.60;;;;;;4987063;28;20093;-82
2022/09/09 02:10:05;;;;;;;4.07;0.80;;;15.10;70.40;;;;;;4982686;28;20058;-86
2022/09/09 02:12:31;;;;;;;2.75;0.68;;;15.20;70.40;;;;;;4977583;28;20058;-84
2022/09/09 02:15:04;;;;;;;3.40;1.10;;;15.20;70.40;;;;;;4976231;28;20078;-85
2022/09/09 02:17:36;;;;;;;2.92;0.80;;;15.30;70.50;;;;;;4991336;28;20464;-83
2022/09/09 02:20:08;;;;;;;3.72;1.17;;;15.30;70.40;;;;;;4979877;28;20026;-84
2022/09/09 02:22:35;;;;;;;1.98;0.80;;;15.30;70.40;;;;;;4983579;28;20047;-86
2022/09/09 02:25:02;;;;;;;2.40;0.85;;;15.30;70.20;;;;;;4985216;28;20042;-82
2022/09/09 02:27:28;;;;;;;5.88;0.98;;;15.40;70.10;;;;;;4980767;28;20034;-84
2022/09/09 02:30:01;;;;;;;5.10;0.77;;;15.40;69.90;;;;;;4975867;28;20046;-83
2022/09/09 02:32:30;;;;;;;3.35;0.85;;;15.40;69.70;;;;;;4976101;28;20094;-87
2022/09/09 02:35:11;;;;;;;4.88;0.90;;;15.40;70.00;;;;;;4975767;28;20038;-84
2022/09/09 02:37:38;;;;;;;4.88;0.73;;;15.50;69.80;;;;;;4976064;28;20019;-84
2022/09/09 02:40:10;;;;;;;1.75;0.68;;;15.60;69.60;;;;;;4975930;28;20029;-84
2022/09/09 02:42:55;;;;;;;1.50;0.70;;;15.60;69.50;;;;;;4975810;28;20029;-85
2022/09/09 02:45:25;;;;;;;2.22;0.88;;;15.60;69.50;;;;;;4975989;28;20030;-84
2022/09/09 02:48:00;;;;;;;3.25;0.70;;;15.70;69.50;;;;;;4976317;28;20026;-84
2022/09/09 02:50:32;;;;;;;3.58;0.90;;;15.70;69.40;;;;;;4975588;28;20052;-85
2022/09/09 02:53:04;;;;;;;4.15;0.90;;;15.70;69.40;;;;;;4975685;28;20038;-86
2022/09/09 02:55:46;;;;;;;4.60;0.90;;;15.70;69.40;;;;;;4975711;28;20038;-85
2022/09/09 02:58:16;;;;;;;5.70;1.10;;;15.80;70.30;;;;;;4979653;28;20034;-84
2022/09/09 03:00:45;;;;;;;3.60;1.27;;;15.80;71.00;;;;;;4987124;28;20043;-84
2022/09/09 03:03:10;;;;;;;6.75;1.17;;;15.70;72.00;;;;;;4985528;28;20021;-86
2022/09/09 03:05:37;;;;;;;3.65;0.82;;;15.50;74.00;;;;;;4978424;28;20106;-85
2022/09/09 03:08:05;;;;;;;7.15;1.63;;;15.30;76.50;;;;;;4975685;28;20077;-85
2022/09/09 03:10:31;;;;;;;4.05;1.05;;;15.10;77.80;;;;;;4975618;28;20324;-85
2022/09/09 03:12:57;;;;;;;4.80;1.30;;;15.00;78.70;;;;;;4975777;28;20117;-86
2022/09/09 03:15:23;;;;;;;3.30;1.10;;;15.10;79.80;;;;;;4975845;28;20062;-85
2022/09/09 03:17:48;;;;;;;2.83;1.27;;;15.10;80.30;;;;;;4975895;28;20054;-86
2022/09/09 03:20:14;;;;;;;3.58;0.88;;;15.10;80.90;;;;;;4974482;28;20128;-86
2022/09/09 03:22:40;;;;;;;3.88;1.02;;;15.10;81.00;;;;;;4975381;28;20081;-87
2022/09/09 03:25:06;;;;;;;7.82;1.17;;;15.10;81.10;;;;;;4976043;28;20034;-85
2022/09/09 03:27:32;;;;;;;3.90;0.95;;;15.10;81.20;;;;;;4975820;28;20130;-85
2022/09/09 03:29:57;;;;;;;3.17;1.05;;;15.10;81.60;;;;;;4985192;28;20471;-84
2022/09/09 03:32:25;;;;;;;2.05;0.80;;;15.00;81.50;;;;;;4995240;28;20034;-85
2022/09/09 03:34:52;;;;;;;4.95;0.77;;;15.10;81.90;;;;;;4993283;28;20035;-84
2022/09/09 03:37:18;;;;;;;3.13;0.77;;;15.10;81.90;;;;;;5002732;28;20041;-85
2022/09/09 03:39:44;;;;;;;4.47;1.35;;;15.10;82.20;;;;;;4995316;28;20039;-84
2022/09/09 03:42:13;;;;;;;2.22;0.95;;;15.10;82.70;;;;;;4979871;28;20387;-85
2022/09/09 03:44:39;;;;;;;5.40;0.90;;;15.10;82.30;;;;;;4993612;28;20026;-85
2022/09/09 03:47:06;;;;;;;2.70;0.80;;;15.00;82.20;;;;;;4997426;28;20019;-82
2022/09/09 03:49:31;;;;;;;6.45;0.93;;;15.10;82.00;;;;;;4997005;28;20043;-85
2022/09/09 03:51:58;;;;;;;4.07;1.35;;;15.00;82.10;;;;;;4986880;28;20023;-85
2022/09/09 03:54:25;;;;;;;2.45;0.70;;;14.90;82.60;;;;;;4979026;28;20030;-85
2022/09/09 03:56:51;;;;;;;3.30;1.10;;;14.80;82.60;;;;;;4977901;28;20046;-86
2022/09/09 03:59:16;;;;;;;3.00;1.23;;;14.90;82.90;;;;;;4978822;28;20027;-86
2022/09/09 04:01:42;;;;;;;7.88;1.45;;;14.80;83.00;;;;;;4978906;28;20034;-87
2022/09/09 04:04:08;;;;;;;3.53;1.73;;;14.80;83.00;;;;;;4978705;28;20027;-86
2022/09/09 04:06:34;;;;;;;5.00;1.30;;;14.70;83.40;;;;;;4978644;28;20030;-87
2022/09/09 04:09:02;;;;;;;6.50;1.70;;;14.70;83.00;;;;;;4978792;28;20030;-86
2022/09/09 04:11:28;;;;;;;5.35;1.67;;;14.60;83.20;;;;;;4978916;28;20126;-87
2022/09/09 04:13:53;;;;;;;10.65;2.33;;;14.40;83.90;;;;;;4978832;28;20121;-87
2022/09/09 04:16:19;;;;;;;6.95;2.17;;;14.40;85.00;;;;;;4978977;28;20050;-87
2022/09/09 04:18:45;;;;;;;6.57;2.00;;;14.30;84.20;;;;;;4979083;28;20031;-87
2022/09/09 04:21:12;;;;;;;4.72;1.98;;;14.30;84.50;;;;;;4978430;28;20023;-84
2022/09/09 04:23:38;;;;;;;4.43;1.88;;;14.30;84.90;;;;;;4978187;28;20102;-84
2022/09/09 04:26:05;;;;;;;3.08;1.77;;;14.30;85.00;;;;;;4977942;28;20049;-86
2022/09/09 04:28:33;;;;;;;5.85;1.80;;;14.30;85.30;;;;;;4978287;28;20484;-87
2022/09/09 04:31:17;;;;;;;5.50;1.40;;;14.30;85.20;;;;;;4976656;28;20031;-88
2022/09/09 04:33:43;;;;;;;5.38;1.42;;;14.30;85.50;;;;;;4977495;28;20027;-88
2022/09/09 04:36:08;;;;;;;6.95;2.00;;;14.40;85.60;;;;;;4977814;28;20030;-86
2022/09/09 04:38:34;;;;;;;2.95;1.25;;;14.30;85.60;;;;;;4977871;28;20030;-86
2022/09/09 04:40:59;;;;;;;5.57;1.33;;;14.30;85.70;;;;;;4977649;28;20462;-87
2022/09/09 04:43:26;;;;;;;3.10;1.20;;;14.40;85.90;;;;;;4977861;28;20023;-84
2022/09/09 04:45:53;;;;;;;5.28;1.52;;;14.30;85.70;;;;;;4978661;28;20019;-85
2022/09/09 04:48:19;;;;;;;7.13;1.40;;;14.40;85.80;;;;;;4977641;28;20026;-86
2022/09/09 04:50:54;;;;;;;6.10;1.77;;;14.40;85.60;;;;;;4977196;28;20034;-85
2022/09/09 04:53:20;;;;;;;3.30;1.13;;;14.40;85.50;;;;;;4977218;28;20022;-81
2022/09/09 04:55:46;;;;;;;2.67;1.20;;;14.50;85.70;;;;;;4977351;28;20027;-85
2022/09/09 04:58:11;;;;;;;4.40;1.50;;;14.50;85.40;;;;;;4977311;28;20499;-84
2022/09/09 05:00:37;;;;;;;3.15;1.90;;;14.70;85.50;;;;;;4976336;28;20030;-86
2022/09/09 05:03:06;;;;;;;5.43;1.60;;;14.70;85.40;;;;;;4977556;28;20022;-86
2022/09/09 05:05:36;;;;;;;5.15;1.40;;;14.70;85.40;;;;;;4977597;28;20027;-86
2022/09/09 05:08:03;;;;;;;3.67;1.27;;;14.80;85.40;;;;;;4976689;28;20448;-82
2022/09/09 05:10:29;;;;;;;5.40;1.13;;;14.90;85.20;;;;;;4976507;28;20093;-83
2022/09/09 05:12:54;;;;;;;3.67;1.20;;;14.90;84.60;;;;;;4975226;28;20034;-84
2022/09/09 05:15:21;;;;;;;1.45;0.80;;;14.90;84.30;;;;;;4975365;28;20035;-83
2022/09/09 05:17:46;;;;;;;3.25;1.23;;;14.90;84.30;;;;;;4976554;28;20106;-82
2022/09/09 05:20:12;;;;;;;3.50;1.23;;;15.00;84.40;;;;;;4974848;28;20030;-81
2022/09/09 05:22:37;;;;;;;4.75;2.08;;;15.10;84.60;;;;;;4976068;28;20101;-84
2022/09/09 05:25:03;;;;;;;2.90;1.63;;;15.10;84.60;;;;;;4981840;28;20026;-94
2022/09/09 05:27:31;;;;;;;5.00;1.33;;;15.20;84.40;;;;;;4981895;28;20506;-92
2022/09/09 05:29:57;;;;;;;5.32;1.52;;;15.20;83.70;;;;;;4979686;28;20030;-89
2022/09/09 05:32:22;;;;;;;1.55;0.80;;;15.20;84.00;;;;;;4980094;28;20212;-88
2022/09/09 05:34:48;;;;;;;24.02;2.83;;;15.20;84.00;;;;;;4977353;28;20113;-81
2022/09/09 05:37:14;;;;;;;5.20;1.30;;;15.30;85.90;;;;;;4976641;28;20023;-80
2022/09/09 05:39:40;;;;;;;3.75;1.33;;;15.60;86.00;;;;;;4976599;28;20038;-82
2022/09/09 05:42:05;;;;;;;5.63;1.33;;;15.70;84.80;;;;;;4975893;28;20147;-82
2022/09/09 05:44:31;;;;;;;2.95;1.15;;;15.90;83.70;;;;;;4977026;28;20046;-84
2022/09/09 05:46:57;;;;;;;11.15;1.67;;;16.10;82.00;;;;;;4976262;28;20027;-82
2022/09/09 05:49:23;;;;;;;5.90;1.42;;;16.20;81.60;;;;;;4975658;28;20085;-82
2022/09/09 05:51:50;;;;;;;6.15;1.20;;;16.20;80.90;;;;;;4974274;28;20030;-83
2022/09/09 05:54:16;;;;;;;4.55;1.00;;;16.30;80.10;;;;;;4974894;28;20034;-80
2022/09/09 05:56:41;;;;;;;3.80;1.17;;;16.40;79.30;;;;;;4974285;28;20026;-83
2022/09/09 05:59:07;;;;;;;4.00;1.30;;;16.50;79.40;;;;;;4975453;28;20113;-83
2022/09/09 06:01:35;;;;;;;4.78;1.42;;;16.50;79.80;;;;;;4975172;28;20035;-83
2022/09/09 06:04:01;;;;;;;4.10;1.00;;;16.50;79.10;;;;;;4975986;28;20467;-82
2022/09/09 06:06:36;;;;;;;4.13;1.38;;;16.70;78.80;;;;;;4976495;28;20050;-81
2022/09/09 06:09:02;;;;;;;2.60;1.20;;;16.70;78.00;;;;;;4975945;28;20375;-84
2022/09/09 06:44:43;;;;;;;4.10;1.05;;;17.20;76.80;;;;;;4401919;23;21110;-74
2022/09/09 06:47:08;;;;;;;4.35;1.08;;;17.30;75.90;;;;;;5014320;28;20050;-75
2022/09/09 06:49:34;;;;;;;5.35;1.27;;;17.30;75.40;;;;;;5013119;28;20033;-72
2022/09/09 06:52:00;;;;;;;6.65;1.02;;;17.40;75.10;;;;;;5013087;28;20121;-73
2022/09/09 06:54:26;;;;;;;4.55;1.20;;;17.60;74.90;;;;;;5011919;28;20033;-75
2022/09/09 06:56:51;;;;;;;6.18;0.82;;;17.80;74.40;;;;;;5013126;28;20026;-74
2022/09/09 06:59:17;;;;;;;3.97;1.27;;;17.90;73.80;;;;;;5013075;28;20168;-74
2022/09/09 07:01:51;;;;;;;2.22;1.02;;;18.00;73.60;;;;;;5011997;28;20068;-75
2022/09/09 07:04:17;;;;;;;2.53;0.82;;;18.00;71.90;;;;;;5012579;28;20030;-74
2022/09/09 07:06:44;;;;;;;2.65;1.40;;;18.00;71.80;;;;;;5016526;28;20028;-75
2022/09/09 07:09:12;;;;;;;3.70;1.35;;;18.00;71.90;;;;;;5017443;28;20089;-74
2022/09/09 07:11:41;;;;;;;3.35;1.02;;;18.10;71.80;;;;;;5017319;28;20018;-74
2022/09/09 07:14:07;;;;;;;5.15;1.42;;;18.20;71.60;;;;;;5017790;28;20038;-74
2022/09/09 07:16:33;;;;;;;4.07;1.00;;;18.20;71.50;;;;;;5015966;28;20041;-74
2022/09/09 07:18:58;;;;;;;3.33;1.20;;;18.20;71.30;;;;;;5017287;28;20041;-74
2022/09/09 07:21:28;;;;;;;3.55;0.82;;;18.20;71.70;;;;;;5018154;28;20069;-74
2022/09/09 07:23:54;;;;;;;3.38;1.20;;;18.20;71.50;;;;;;5017084;28;20026;-74
2022/09/09 07:26:24;;;;;;;5.63;1.13;;;18.10;70.80;;;;;;5016975;28;20469;-74
2022/09/09 07:28:49;;;;;;;2.83;1.73;;;18.00;70.60;;;;;;5017162;28;20033;-74
2022/09/09 07:31:21;;;;;;;5.20;2.03;;;17.90;70.80;;;;;;5017130;28;20025;-74
2022/09/09 07:33:48;;;;;;;4.75;2.03;;;17.70;72.30;;;;;;5017091;28;20056;-75
2022/09/09 07:36:18;;;;;;;7.90;1.50;;;17.40;73.70;;;;;;5016685;28;20511;-76
2022/09/09 07:38:47;;;;;;;6.50;1.27;;;17.30;74.80;;;;;;5017195;28;20045;-76
2022/09/09 07:41:17;;;;;;;10.82;1.40;;;17.40;73.10;;;;;;5016951;28;20025;-76
2022/09/09 07:43:43;;;;;;;4.25;0.90;;;17.30;73.50;;;;;;5015674;28;20026;-76
2022/09/09 07:46:10;;;;;;;5.90;1.20;;;17.40;74.20;;;;;;5016923;28;20390;-76
2022/09/09 07:48:36;;;;;;;3.30;1.05;;;17.40;74.80;;;;;;5016740;28;20101;-76
2022/09/09 07:51:07;;;;;;;7.70;1.27;;;17.50;74.90;;;;;;5016424;28;20076;-76
2022/09/09 07:53:34;;;;;;;3.70;1.05;;;17.60;73.00;;;;;;5017644;28;20034;-76
2022/09/09 07:56:04;;;;;;;5.55;1.33;;;17.70;72.00;;;;;;5015802;28;20034;-76
2022/09/09 07:58:30;;;;;;;4.60;1.20;;;17.80;72.40;;;;;;5016476;28;20026;-76
2022/09/09 08:00:57;;;;;;;5.55;1.00;;;17.80;71.90;;;;;;5016374;28;20073;-76
2022/09/09 08:03:23;;;;;;;4.13;1.10;;;17.80;71.40;;;;;;5016421;28;20056;-77
2022/09/09 08:05:49;;;;;;;5.10;1.27;;;17.60;72.50;;;;;;5016157;28;20045;-76
2022/09/09 08:08:16;;;;;;;4.65;1.25;;;17.70;72.80;;;;;;5016059;28;20022;-75
2022/09/09 08:10:44;;;;;;;6.10;1.45;;;17.70;72.80;;;;;;5016760;28;20477;-82
2022/09/09 08:13:10;;;;;;;4.28;0.98;;;17.60;72.50;;;;;;5015923;28;20049;-81
2022/09/09 08:15:36;;;;;;;4.28;1.00;;;17.60;73.60;;;;;;5014617;28;20401;-81
2022/09/09 08:18:02;;;;;;;7.32;1.30;;;17.40;74.70;;;;;;5014882;28;20022;-81
2022/09/09 08:20:28;;;;;;;4.72;0.90;;;17.30;72.00;;;;;;5016524;28;20064;-81
2022/09/09 08:22:55;;;;;;;3.38;0.98;;;17.30;74.40;;;;;;5015261;28;20025;-82
2022/09/09 08:25:21;;;;;;;6.00;1.00;;;17.30;74.70;;;;;;5015112;28;20474;-80
2022/09/09 08:27:46;;;;;;;7.90;1.23;;;17.40;75.40;;;;;;5016064;28;20032;-81
2022/09/09 08:30:12;;;;;;;4.45;0.60;;;17.30;71.30;;;;;;5015939;28;20018;-82
2022/09/09 08:32:38;;;;;;;4.88;0.95;;;17.40;71.90;;;;;;5015980;28;20033;-82
2022/09/09 08:35:04;;;;;;;2.47;1.02;;;17.40;72.00;;;;;;5014998;28;20034;-81
2022/09/09 08:37:29;;;;;;;4.38;0.77;;;17.40;73.60;;;;;;5016337;28;20477;-81
2022/09/09 08:39:56;;;;;;;5.65;1.40;;;17.50;71.30;;;;;;5014848;28;20075;-81
2022/09/09 08:42:48;;;;;;;4.35;1.10;;;17.40;73.30;;;;;;5015986;28;20022;-81
2022/09/09 08:45:32;;;;;;;4.32;1.30;;;17.50;73.50;;;;;;5016001;28;20076;-82
2022/09/09 08:48:37;;;;;;;10.40;0.88;;;17.80;72.20;;;;;;5016339;28;20018;-80
2022/09/09 08:51:07;;;;;;;4.97;0.87;;;18.00;71.40;;;;;;5014816;28;20504;-81
2022/09/09 08:53:44;;;;;;;6.93;0.95;;;18.30;70.60;;;;;;5015905;28;20014;-81
2022/09/09 08:56:18;;;;;;;3.03;0.80;;;18.40;70.20;;;;;;5015361;28;20189;-82
2022/09/09 08:58:52;;;;;;;4.32;0.95;;;18.40;69.60;;;;;;5015601;28;20018;-83
2022/09/09 09:01:41;;;;;;;2.05;0.80;;;18.30;68.50;;;;;;5014486;28;20200;-82
2022/09/09 09:04:44;;;;;;;7.68;1.08;;;18.30;68.50;;;;;;5014356;28;20108;-82
2022/09/09 09:07:36;;;;;;;3.10;0.90;;;18.30;67.70;;;;;;5015722;28;20520;-82
2022/09/09 09:10:24;;;;;;;7.72;1.02;;;18.50;67.30;;;;;;4965424;28;20030;-82
2022/09/09 09:12:50;;;;;;;4.88;0.82;;;18.60;65.50;;;;;;5005168;28;20053;-81
2022/09/09 09:15:30;;;;;;;7.07;0.73;;;18.70;65.00;;;;;;5001470;28;20077;-80
2022/09/09 09:17:57;;;;;;;6.75;0.80;;;18.70;65.90;;;;;;5013766;28;20469;-81
2022/09/09 09:20:51;;;;;;;3.65;0.60;;;18.90;66.10;;;;;;5014918;28;20030;-82
2022/09/09 09:23:23;;;;;;;6.63;1.02;;;19.20;64.70;;;;;;5013753;28;20075;-81
2022/09/09 09:25:51;;;;;;;5.65;1.15;;;19.10;64.70;;;;;;5015070;28;20025;-75
2022/09/09 09:28:25;;;;;;;2.90;0.80;;;18.80;64.20;;;;;;5013782;28;20470;-74
2022/09/09 09:30:58;;;;;;;4.88;1.00;;;18.80;63.10;;;;;;5014528;28;20038;-74
2022/09/09 09:33:41;;;;;;;3.78;0.85;;;19.10;62.50;;;;;;5014317;28;20022;-74
2022/09/09 09:36:08;;;;;;;3.83;0.70;;;19.30;59.70;;;;;;5014976;28;20038;-74
2022/09/09 09:38:35;;;;;;;7.10;1.05;;;19.50;59.50;;;;;;5022721;28;20018;-75
2022/09/09 09:41:01;;;;;;;7.15;1.27;;;19.20;60.20;;;;;;5022191;28;20458;-75
2022/09/09 09:43:32;;;;;;;3.95;0.68;;;19.30;62.90;;;;;;5017373;28;20429;-74
2022/09/09 09:45:59;;;;;;;2.35;0.52;;;19.50;62.20;;;;;;5015652;28;20084;-76
2022/09/09 09:48:26;;;;;;;2.75;0.73;;;19.60;59.10;;;;;;5016018;28;20025;-78
2022/09/09 09:51:02;;;;;;;6.18;1.25;;;19.30;60.00;;;;;;5014270;28;20454;-73
2022/09/09 09:53:33;;;;;;;3.03;0.70;;;18.90;58.80;;;;;;5010309;28;20390;-74
2022/09/09 09:56:12;;;;;;;4.60;0.93;;;18.60;61.70;;;;;;5013901;28;20120;-75
2022/09/09 09:58:44;;;;;;;3.22;0.85;;;18.30;61.80;;;;;;5013360;28;20087;-76
2022/09/09 10:01:33;;;;;;;5.40;1.02;;;18.30;62.80;;;;;;5011745;28;20056;-77
2022/09/09 10:04:25;;;;;;;6.72;1.00;;;18.40;61.30;;;;;;5011794;28;20024;-75
2022/09/09 10:06:52;;;;;;;3.63;0.70;;;18.50;58.50;;;;;;5012045;28;20079;-76
2022/09/09 10:09:28;;;;;;;4.55;0.98;;;18.40;60.00;;;;;;4996193;28;20399;-76
2022/09/09 10:12:14;;;;;;;5.38;0.88;;;18.40;60.40;;;;;;5025759;28;20025;-79
2022/09/09 10:15:08;;;;;;;4.95;0.95;;;18.70;59.20;;;;;;4976611;28;20140;-73
2022/09/09 10:17:43;;;;;;;2.63;0.70;;;18.90;56.90;;;;;;5012006;28;20029;-74
2022/09/09 10:20:40;;;;;;;3.30;0.68;;;19.00;57.90;;;;;;5013270;28;20482;-73
2022/09/09 10:23:32;;;;;;;4.80;0.90;;;19.40;55.40;;;;;;5012573;28;20025;-72
2022/09/09 10:26:28;;;;;;;4.63;0.80;;;19.70;54.60;;;;;;4999579;28;20049;-73
2022/09/09 10:29:11;;;;;;;4.13;0.85;;;19.60;53.80;;;;;;5011950;28;20026;-73
2022/09/09 10:31:40;;;;;;;4.05;0.90;;;19.70;54.20;;;;;;5013384;28;20088;-73
2022/09/09 10:34:40;;;;;;;3.03;0.52;;;19.80;52.10;;;;;;5013269;28;20026;-74
2022/09/09 10:37:35;;;;;;;3.33;0.75;;;20.00;52.40;;;;;;5013284;28;20026;-72
2022/09/09 10:40:33;;;;;;;2.17;0.50;;;20.00;52.00;;;;;;5013421;28;20029;-73
2022/09/09 10:43:17;;;;;;;1.27;0.40;;;20.10;51.20;;;;;;5017995;28;20049;-73
2022/09/09 10:46:15;;;;;;;4.28;0.80;;;20.30;49.70;;;;;;5022465;28;20046;-74
2022/09/09 10:48:57;;;;;;;2.22;0.52;;;20.30;49.30;;;;;;5014846;28;20081;-75
2022/09/09 10:51:49;;;;;;;4.00;0.68;;;20.40;50.00;;;;;;5012766;28;20022;-73
2022/09/09 10:54:46;;;;;;;5.70;0.85;;;20.10;51.50;;;;;;5014163;28;20033;-74
2022/09/09 10:57:38;;;;;;;2.55;0.60;;;20.20;51.80;;;;;;5012908;28;20029;-73
2022/09/09 11:00:23;;;;;;;4.88;0.80;;;20.30;51.30;;;;;;5013195;28;20026;-72
2022/09/09 11:03:04;;;;;;;2.03;0.70;;;20.40;52.50;;;;;;5013044;28;20056;-75
2022/09/09 11:05:47;;;;;;;3.38;0.57;;;20.50;50.80;;;;;;5013138;28;20024;-75
2022/09/09 11:08:25;;;;;;;4.93;0.70;;;20.70;51.00;;;;;;5003592;28;20025;-73
2022/09/09 11:11:03;;;;;;;2.03;0.68;;;20.80;48.80;;;;;;4993288;28;20046;-73
2022/09/09 11:13:48;;;;;;;2.65;0.70;;;20.60;49.40;;;;;;5003003;28;20601;-74
2022/09/09 11:16:21;;;;;;;1.98;0.45;;;20.60;50.30;;;;;;5013254;28;20439;-73
2022/09/09 11:18:47;;;;;;;2.20;0.60;;;20.60;48.00;;;;;;5012893;28;20037;-74
2022/09/09 11:21:26;;;;;;;2.42;0.65;;;20.50;48.40;;;;;;5012721;28;20500;-72
2022/09/09 11:24:09;;;;;;;1.45;0.65;;;20.40;49.60;;;;;;5011581;28;20030;-73
2022/09/09 11:26:52;;;;;;;1.45;0.60;;;20.50;48.10;;;;;;5012374;28;20113;-72
2022/09/09 11:29:49;;;;;;;2.75;1.02;;;20.50;47.50;;;;;;5012994;28;20029;-74
2022/09/09 11:32:34;;;;;;;2.40;0.60;;;20.70;46.00;;;;;;5012894;28;20030;-73
2022/09/09 11:35:22;;;;;;;2.67;0.53;;;20.70;45.30;;;;;;5012792;28;20029;-74
2022/09/09 11:38:04;;;;;;;3.95;0.60;;;20.70;43.80;;;;;;5011644;28;20355;-72
2022/09/09 11:40:32;;;;;;;3.63;0.57;;;21.00;42.00;;;;;;5012950;28;20026;-73
2022/09/09 11:43:23;;;;;;;3.13;0.52;;;21.30;42.60;;;;;;5012979;28;20018;-72
2022/09/09 11:45:55;;;;;;;3.05;0.47;;;21.30;43.10;;;;;;5012847;28;20061;-74
2022/09/09 11:48:34;;;;;;;2.30;0.43;;;21.00;40.40;;;;;;5012846;28;20038;-76
2022/09/09 11:51:09;;;;;;;1.80;0.50;;;20.90;40.20;;;;;;5011865;28;20026;-75
2022/09/09 11:53:54;;;;;;;2.67;0.50;;;20.90;40.50;;;;;;5015508;28;20112;-72
2022/09/09 11:56:41;;;;;;;4.55;0.65;;;20.80;41.20;;;;;;5016366;28;20036;-78
2022/09/09 11:59:25;;;;;;;6.85;0.70;;;20.70;41.70;;;;;;5016192;28;20026;-72
2022/09/09 12:01:56;;;;;;;1.90;0.40;;;20.60;42.50;;;;;;5016291;28;20038;-74
2022/09/09 12:04:24;;;;;;;2.55;0.40;;;20.70;42.20;;;;;;5016518;28;20026;-77
2022/09/09 12:07:09;;;;;;;2.92;1.10;;;20.90;41.40;;;;;;5016504;28;20022;-75
2022/09/09 12:09:43;;;;;;;0.95;0.40;;;20.90;42.30;;;;;;5016302;28;20061;-77
2022/09/09 12:12:11;;;;;;;3.20;0.50;;;20.70;41.30;;;;;;5016662;28;20481;-73
2022/09/09 12:14:37;;;;;;;1.38;0.60;;;21.20;41.00;;;;;;5016530;28;20137;-72
2022/09/09 12:17:14;;;;;;;3.83;0.93;;;21.30;40.30;;;;;;5029621;28;20029;-76
2022/09/09 12:19:40;;;;;;;5.22;0.98;;;21.10;47.20;;;;;;5023199;28;20065;-72
2022/09/09 12:22:35;;;;;;;4.57;0.80;;;20.90;49.70;;;;;;5020566;28;20038;-76
2022/09/09 12:25:08;;;;;;;4.78;0.90;;;20.60;50.30;;;;;;5016699;28;20026;-76
2022/09/09 12:27:42;;;;;;;3.88;0.50;;;20.60;51.50;;;;;;5016180;28;20476;-77
2022/09/09 12:30:11;;;;;;;7.82;0.98;;;21.30;48.30;;;;;;5015505;28;20536;-75
2022/09/09 12:32:37;;;;;;;3.80;0.60;;;21.60;46.60;;;;;;5016101;28;20099;-77
2022/09/09 12:35:25;;;;;;;4.82;0.70;;;22.00;42.80;;;;;;5015550;28;20030;-74
2022/09/09 12:37:58;;;;;;;2.80;0.50;;;22.50;41.30;;;;;;5015572;28;20477;-76
2022/09/09 12:40:27;;;;;;;4.68;0.70;;;22.60;40.80;;;;;;5015666;28;20022;-77
2022/09/09 12:42:53;;;;;;;3.38;0.43;;;22.80;40.00;;;;;;5015628;28;20098;-75
2022/09/09 12:45:21;;;;;;;2.40;0.93;;;22.90;40.00;;;;;;5013945;28;20133;-75
2022/09/09 12:47:56;;;;;;;3.17;0.90;;;23.10;39.20;;;;;;5015416;28;20470;-78
2022/09/09 12:50:27;;;;;;;;;;;22.90;39.50;;;;;;5015531;28;20074;-75
2022/09/09 12:52:56;;;;;;;4.45;0.88;;;23.10;38.80;;;;;;5015293;28;20368;-74
2022/09/09 12:55:27;;;;;;;3.80;0.60;;;23.30;37.90;;;;;;5015110;28;20436;-74
2022/09/09 12:57:52;;;;;;;1.63;0.57;;;23.50;38.30;;;;;;5015257;28;20014;-74
2022/09/09 13:00:23;;;;;;;1.27;0.40;;;23.70;38.20;;;;;;5015108;28;20028;-76
2022/09/09 13:02:54;;;;;;;3.50;0.90;;;23.70;38.30;;;;;;5013777;28;20062;-74
2022/09/09 13:05:26;;;;;;;7.32;0.80;;;23.10;37.40;;;;;;5015182;28;20436;-74
2022/09/09 13:07:52;;;;;;;2.05;0.60;;;22.10;39.00;;;;;;5015082;28;20079;-74
2022/09/09 13:10:27;;;;;;;3.08;0.80;;;21.70;39.90;;;;;;5014917;28;20541;-74
2022/09/09 13:12:54;;;;;;;4.68;0.80;;;21.40;41.40;;;;;;5014998;28;20022;-76
2022/09/09 13:15:26;;;;;;;5.55;0.80;;;21.30;42.50;;;;;;5014457;28;20084;-73
2022/09/09 13:18:08;;;;;;;3.53;1.05;;;21.50;42.60;;;;;;5014862;28;20021;-73
2022/09/09 13:20:33;;;;;;;6.05;0.70;;;21.80;42.30;;;;;;5014853;28;20052;-75
2022/09/09 13:22:59;;;;;;;8.07;0.90;;;22.40;40.10;;;;;;5014728;28;20465;-74
2022/09/09 13:25:27;;;;;;;1.85;0.57;;;22.50;40.40;;;;;;5014186;28;20576;-74
2022/09/09 13:27:55;;;;;;;0.88;0.32;;;23.00;39.60;;;;;;5014650;28;20108;-75
2022/09/09 13:30:32;;;;;;;3.70;0.63;;;23.10;37.40;;;;;;5014774;28;20074;-75
2022/09/09 13:33:03;;;;;;;2.88;0.80;;;23.30;36.10;;;;;;5014788;28;20091;-75
2022/09/09 13:35:29;;;;;;;3.80;0.68;;;23.60;35.50;;;;;;5014626;28;20181;-74
2022/09/09 13:37:55;;;;;;;2.83;1.02;;;23.40;36.30;;;;;;5014533;28;20119;-74
2022/09/09 13:40:23;;;;;;;4.32;0.80;;;23.20;35.00;;;;;;5014447;28;20576;-77
2022/09/09 13:42:53;;;;;;;2.75;0.70;;;22.80;36.80;;;;;;5014333;28;20501;-75
2022/09/09 13:45:21;;;;;;;5.78;1.92;;;22.40;37.00;;;;;;5014147;28;20061;-76
2022/09/09 13:47:51;;;;;;;3.42;0.82;;;21.70;39.50;;;;;;5013992;28;20021;-74
2022/09/09 13:50:26;;;;;;;3.80;0.82;;;21.50;40.00;;;;;;5013170;28;20030;-76
2022/09/09 13:52:54;;;;;;;5.17;0.90;;;21.20;41.20;;;;;;5014366;28;20058;-76